METAR AND TAF INFORMATION
METAR FOR PWAK
ADDS - METARS form results

(2200 UTC 16 January 2019)
Data provider http://aviationweather.gov/metar/data/
 
Forecast for: PWAK (WAKE ISLAND AIRF, UM, US)
Text: TAF PWAK 161400Z 1614/1720 05015G20KT 9999 BKN030 QNH2990INS TX30/1704Z TN24/1615Z LIMITED METWATCH 1614 TIL 1622
Forecast period: 1400 UTC 16 January 2019 to 2000 UTC 17 January 2019
Forecast type: FROM: standard forecast or significant change
Winds: from the NE (50 degrees) at 17 MPH (15 knots; 7.7 m/s)
gusting to 23 MPH (20 knots; 10.3 m/s)
Visibility: 6 or more miles 10+ km)
Ceiling: 3000 feet AGL
Clouds: broken clouds at 3000 feet AGL
Weather: no significant weather forecast for this period

 AIRPORT MAP

 RUNWAY INFORMATION
Runway 10 Runway length 9843 ft Runway width 150 ft
Runway elevation 14 ft Runway displaced threshold 0 ft Runway heading 95
Runway 28 Runway length 9843 ft Runway width 150 ft
Runway elevation 12 ft Runway displaced threshold 0 ft Runway heading 275

 AIRPORT FREQUENCIES
Type A/G Name OPS AAS Frequency 128 MHZ
Type RDO Name OAKLAND OC Frequency 884.3 MHZ

 AIRPORT NEAR NAVIGATION AIDS
Type VORTAC Name Wake Island Frequency 113500 KHZ



Powered by Virtual Airlines Manager [v2.6.2]